sensor_id;sensor_type;location;lat;lon;timestamp;temperature;humidity
40077;DHT22;25777;47.824;18.982;2023-02-01T00:00:27;3.20;99.90
40077;DHT22;25777;47.824;18.982;2023-02-01T00:02:53;3.10;99.90
40077;DHT22;25777;47.824;18.982;2023-02-01T00:05:19;3.10;99.90
40077;DHT22;25777;47.824;18.982;2023-02-01T00:07:47;3.20;99.90
40077;DHT22;25777;47.824;18.982;2023-02-01T00:10:13;3.30;99.90
40077;DHT22;25777;47.824;18.982;2023-02-01T00:12:39;3.20;99.90
40077;DHT22;25777;47.824;18.982;2023-02-01T00:15:06;3.20;99.90
40077;DHT22;25777;47.824;18.982;2023-02-01T00:17:32;3.10;99.90
40077;DHT22;25777;47.824;18.982;2023-02-01T00:20:00;3.20;99.90
40077;DHT22;25777;47.824;18.982;2023-02-01T00:22:26;3.20;99.90
40077;DHT22;25777;47.824;18.982;2023-02-01T00:24:52;3.30;99.90
40077;DHT22;25777;47.824;18.982;2023-02-01T00:27:18;3.30;99.90
40077;DHT22;25777;47.824;18.982;2023-02-01T00:29:47;3.30;99.90
40077;DHT22;25777;47.824;18.982;2023-02-01T00:32:13;3.20;99.90
40077;DHT22;25777;47.824;18.982;2023-02-01T00:34:40;3.30;99.90
40077;DHT22;25777;47.824;18.982;2023-02-01T00:37:08;3.20;99.90
40077;DHT22;25777;47.824;18.982;2023-02-01T00:39:34;3.30;99.90
40077;DHT22;25777;47.824;18.982;2023-02-01T00:42:01;3.40;99.90
40077;DHT22;25777;47.824;18.982;2023-02-01T00:44:27;3.30;99.90
40077;DHT22;25777;47.824;18.982;2023-02-01T00:47:00;3.20;99.90
40077;DHT22;25777;47.824;18.982;2023-02-01T00:49:26;3.40;99.90
40077;DHT22;25777;47.824;18.982;2023-02-01T00:51:52;3.50;99.90
40077;DHT22;25777;47.824;18.982;2023-02-01T00:54:19;3.40;99.90
40077;DHT22;25777;47.824;18.982;2023-02-01T00:56:45;3.30;99.90
40077;DHT22;25777;47.824;18.982;2023-02-01T00:59:12;3.30;99.90
40077;DHT22;25777;47.824;18.982;2023-02-01T01:01:38;3.20;99.90
40077;DHT22;25777;47.824;18.982;2023-02-01T01:04:04;3.20;99.90
40077;DHT22;25777;47.824;18.982;2023-02-01T01:06:33;3.30;99.90
40077;DHT22;25777;47.824;18.982;2023-02-01T01:09:03;3.40;99.90
40077;DHT22;25777;47.824;18.982;2023-02-01T01:11:31;3.40;99.90
40077;DHT22;25777;47.824;18.982;2023-02-01T01:13:59;3.50;99.90
40077;DHT22;25777;47.824;18.982;2023-02-01T01:16:27;3.70;99.90
40077;DHT22;25777;47.824;18.982;2023-02-01T01:18:53;3.60;99.90
40077;DHT22;25777;47.824;18.982;2023-02-01T01:21:21;3.50;99.90
40077;DHT22;25777;47.824;18.982;2023-02-01T01:23:49;3.30;99.90
40077;DHT22;25777;47.824;18.982;2023-02-01T01:26:23;3.30;99.90
40077;DHT22;25777;47.824;18.982;2023-02-01T01:28:50;3.30;99.90
40077;DHT22;25777;47.824;18.982;2023-02-01T01:31:18;3.40;99.90
40077;DHT22;25777;47.824;18.982;2023-02-01T01:33:48;3.60;99.90
40077;DHT22;25777;47.824;18.982;2023-02-01T01:36:15;3.70;99.90
40077;DHT22;25777;47.824;18.982;2023-02-01T01:38:42;3.60;99.90
40077;DHT22;25777;47.824;18.982;2023-02-01T01:41:13;3.60;99.90
40077;DHT22;25777;47.824;18.982;2023-02-01T01:43:58;3.50;99.90
40077;DHT22;25777;47.824;18.982;2023-02-01T01:46:30;3.50;99.90
40077;DHT22;25777;47.824;18.982;2023-02-01T01:49:05;3.40;99.90
40077;DHT22;25777;47.824;18.982;2023-02-01T01:52:03;3.20;99.90
40077;DHT22;25777;47.824;18.982;2023-02-01T01:54:37;3.40;99.90
40077;DHT22;25777;47.824;18.982;2023-02-01T01:57:08;3.30;99.90
40077;DHT22;25777;47.824;18.982;2023-02-01T01:59:38;3.30;99.90
40077;DHT22;25777;47.824;18.982;2023-02-01T02:02:06;3.30;99.90
40077;DHT22;25777;47.824;18.982;2023-02-01T02:04:34;3.30;99.90
40077;DHT22;25777;47.824;18.982;2023-02-01T02:07:21;3.40;99.90
40077;DHT22;25777;47.824;18.982;2023-02-01T02:09:48;3.40;99.90
40077;DHT22;25777;47.824;18.982;2023-02-01T02:12:14;3.40;99.90
40077;DHT22;25777;47.824;18.982;2023-02-01T02:14:40;3.30;99.90
40077;DHT22;25777;47.824;18.982;2023-02-01T02:23:18;3.50;99.90
40077;DHT22;25777;47.824;18.982;2023-02-01T02:26:04;3.60;99.90
40077;DHT22;25777;47.824;18.982;2023-02-01T02:32:17;3.60;99.90
40077;DHT22;25777;47.824;18.982;2023-02-01T02:37:46;3.70;99.90
40077;DHT22;25777;47.824;18.982;2023-02-01T02:40:37;3.70;99.90
40077;DHT22;25777;47.824;18.982;2023-02-01T02:43:20;3.80;99.90
40077;DHT22;25777;47.824;18.982;2023-02-01T02:51:40;3.40;99.90
40077;DHT22;25777;47.824;18.982;2023-02-01T02:54:29;3.20;99.90
40077;DHT22;25777;47.824;18.982;2023-02-01T02:57:31;3.20;99.90
40077;DHT22;25777;47.824;18.982;2023-02-01T03:00:24;3.20;99.90
40077;DHT22;25777;47.824;18.982;2023-02-01T03:03:09;3.00;99.90
40077;DHT22;25777;47.824;18.982;2023-02-01T03:05:53;3.00;99.90
40077;DHT22;25777;47.824;18.982;2023-02-01T03:08:27;3.00;99.90
40077;DHT22;25777;47.824;18.982;2023-02-01T03:11:07;2.90;99.90
40077;DHT22;25777;47.824;18.982;2023-02-01T03:16:28;2.90;99.90
40077;DHT22;25777;47.824;18.982;2023-02-01T03:19:02;2.90;99.90
40077;DHT22;25777;47.824;18.982;2023-02-01T03:21:43;2.90;99.90
40077;DHT22;25777;47.824;18.982;2023-02-01T03:24:27;2.90;99.90
40077;DHT22;25777;47.824;18.982;2023-02-01T03:27:35;2.70;99.90
40077;DHT22;25777;47.824;18.982;2023-02-01T03:30:23;2.60;99.90
40077;DHT22;25777;47.824;18.982;2023-02-01T03:32:57;2.60;99.90
40077;DHT22;25777;47.824;18.982;2023-02-01T03:35:28;2.50;99.90
40077;DHT22;25777;47.824;18.982;2023-02-01T03:38:20;2.50;99.90
40077;DHT22;25777;47.824;18.982;2023-02-01T03:40:52;2.60;99.90
40077;DHT22;25777;47.824;18.982;2023-02-01T03:43:22;2.40;99.90
40077;DHT22;25777;47.824;18.982;2023-02-01T03:45:54;2.50;99.90
40077;DHT22;25777;47.824;18.982;2023-02-01T03:48:24;2.80;99.90
40077;DHT22;25777;47.824;18.982;2023-02-01T03:50:56;2.70;99.90
40077;DHT22;25777;47.824;18.982;2023-02-01T03:53:23;2.70;99.90
40077;DHT22;25777;47.824;18.982;2023-02-01T03:55:52;2.80;99.90
40077;DHT22;25777;47.824;18.982;2023-02-01T03:58:22;2.70;99.90
40077;DHT22;25777;47.824;18.982;2023-02-01T04:00:57;2.50;99.90
40077;DHT22;25777;47.824;18.982;2023-02-01T04:03:26;2.40;99.90
40077;DHT22;25777;47.824;18.982;2023-02-01T04:05:52;2.60;99.90
40077;DHT22;25777;47.824;18.982;2023-02-01T04:08:23;2.80;99.90
40077;DHT22;25777;47.824;18.982;2023-02-01T04:10:51;2.90;99.90
40077;DHT22;25777;47.824;18.982;2023-02-01T04:13:17;2.90;99.90
40077;DHT22;25777;47.824;18.982;2023-02-01T04:15:43;3.10;99.90
40077;DHT22;25777;47.824;18.982;2023-02-01T04:18:09;3.00;99.90
40077;DHT22;25777;47.824;18.982;2023-02-01T04:20:36;3.00;99.90
40077;DHT22;25777;47.824;18.982;2023-02-01T04:23:02;3.10;99.90
40077;DHT22;25777;47.824;18.982;2023-02-01T04:25:28;3.10;99.90
40077;DHT22;25777;47.824;18.982;2023-02-01T04:27:54;3.00;99.90
40077;DHT22;25777;47.824;18.982;2023-02-01T04:30:20;3.00;99.90
40077;DHT22;25777;47.824;18.982;2023-02-01T04:32:46;3.10;99.90
40077;DHT22;25777;47.824;18.982;2023-02-01T04:35:13;3.10;99.90
40077;DHT22;25777;47.824;18.982;2023-02-01T04:37:40;3.00;99.90
40077;DHT22;25777;47.824;18.982;2023-02-01T04:40:06;3.00;99.90
40077;DHT22;25777;47.824;18.982;2023-02-01T04:42:32;3.00;99.90
40077;DHT22;25777;47.824;18.982;2023-02-01T04:44:59;2.80;99.90
40077;DHT22;25777;47.824;18.982;2023-02-01T04:47:31;2.90;99.90
40077;DHT22;25777;47.824;18.982;2023-02-01T04:49:57;3.10;99.90
40077;DHT22;25777;47.824;18.982;2023-02-01T04:52:27;3.10;99.90
40077;DHT22;25777;47.824;18.982;2023-02-01T04:54:53;3.20;99.90
40077;DHT22;25777;47.824;18.982;2023-02-01T04:57:23;3.30;99.90
40077;DHT22;25777;47.824;18.982;2023-02-01T04:59:49;3.30;99.90
40077;DHT22;25777;47.824;18.982;2023-02-01T05:02:16;3.20;99.90
40077;DHT22;25777;47.824;18.982;2023-02-01T05:04:42;3.20;99.90
40077;DHT22;25777;47.824;18.982;2023-02-01T05:07:07;3.10;99.90
40077;DHT22;25777;47.824;18.982;2023-02-01T05:09:35;3.20;99.90
40077;DHT22;25777;47.824;18.982;2023-02-01T05:12:02;3.20;99.90
40077;DHT22;25777;47.824;18.982;2023-02-01T05:14:48;3.20;99.90
40077;DHT22;25777;47.824;18.982;2023-02-01T05:17:14;3.20;99.90
40077;DHT22;25777;47.824;18.982;2023-02-01T05:19:40;3.10;99.90
40077;DHT22;25777;47.824;18.982;2023-02-01T05:22:06;3.10;99.90
40077;DHT22;25777;47.824;18.982;2023-02-01T05:24:32;3.20;99.90
40077;DHT22;25777;47.824;18.982;2023-02-01T05:27:04;3.10;99.90
40077;DHT22;25777;47.824;18.982;2023-02-01T05:29:37;3.10;99.90
40077;DHT22;25777;47.824;18.982;2023-02-01T05:32:03;3.10;99.90
40077;DHT22;25777;47.824;18.982;2023-02-01T05:34:29;3.10;99.90
40077;DHT22;25777;47.824;18.982;2023-02-01T05:36:55;3.00;99.90
40077;DHT22;25777;47.824;18.982;2023-02-01T05:39:21;2.90;99.90
40077;DHT22;25777;47.824;18.982;2023-02-01T05:41:47;2.80;99.90
40077;DHT22;25777;47.824;18.982;2023-02-01T05:44:25;2.70;99.90
40077;DHT22;25777;47.824;18.982;2023-02-01T05:46:51;2.90;99.90
40077;DHT22;25777;47.824;18.982;2023-02-01T05:49:19;3.00;99.90
40077;DHT22;25777;47.824;18.982;2023-02-01T05:51:45;3.10;99.90
40077;DHT22;25777;47.824;18.982;2023-02-01T05:54:12;2.90;99.90
40077;DHT22;25777;47.824;18.982;2023-02-01T05:56:39;2.80;99.90
40077;DHT22;25777;47.824;18.982;2023-02-01T05:59:07;2.80;99.90
40077;DHT22;25777;47.824;18.982;2023-02-01T06:01:33;2.90;99.90
40077;DHT22;25777;47.824;18.982;2023-02-01T06:03:59;2.90;99.90
40077;DHT22;25777;47.824;18.982;2023-02-01T06:06:25;3.00;99.90
40077;DHT22;25777;47.824;18.982;2023-02-01T06:08:51;3.10;99.90
40077;DHT22;25777;47.824;18.982;2023-02-01T06:11:17;3.10;99.90
40077;DHT22;25777;47.824;18.982;2023-02-01T06:13:43;3.00;99.90
40077;DHT22;25777;47.824;18.982;2023-02-01T06:16:12;2.80;99.90
40077;DHT22;25777;47.824;18.982;2023-02-01T06:18:41;2.70;99.90
40077;DHT22;25777;47.824;18.982;2023-02-01T06:21:08;2.80;99.90
40077;DHT22;25777;47.824;18.982;2023-02-01T06:23:34;2.70;99.90
40077;DHT22;25777;47.824;18.982;2023-02-01T06:26:03;2.60;99.90
40077;DHT22;25777;47.824;18.982;2023-02-01T06:28:30;2.60;99.90
40077;DHT22;25777;47.824;18.982;2023-02-01T06:30:56;2.60;99.90
40077;DHT22;25777;47.824;18.982;2023-02-01T06:33:24;2.50;99.90
40077;DHT22;25777;47.824;18.982;2023-02-01T06:35:57;2.50;99.90
40077;DHT22;25777;47.824;18.982;2023-02-01T06:38:24;2.50;99.90
40077;DHT22;25777;47.824;18.982;2023-02-01T06:40:53;2.60;99.90
40077;DHT22;25777;47.824;18.982;2023-02-01T06:43:21;2.60;99.90
40077;DHT22;25777;47.824;18.982;2023-02-01T06:45:48;2.70;99.90
40077;DHT22;25777;47.824;18.982;2023-02-01T06:48:14;2.60;99.90
40077;DHT22;25777;47.824;18.982;2023-02-01T06:50:40;2.70;99.90
40077;DHT22;25777;47.824;18.982;2023-02-01T06:53:07;2.70;99.90
40077;DHT22;25777;47.824;18.982;2023-02-01T06:55:33;2.70;99.90
40077;DHT22;25777;47.824;18.982;2023-02-01T06:57:59;2.60;99.90
40077;DHT22;25777;47.824;18.982;2023-02-01T07:00:28;2.60;99.90
40077;DHT22;25777;47.824;18.982;2023-02-01T07:02:56;2.60;99.90
40077;DHT22;25777;47.824;18.982;2023-02-01T07:05:23;2.60;99.90
40077;DHT22;25777;47.824;18.982;2023-02-01T07:07:49;2.60;99.90
40077;DHT22;25777;47.824;18.982;2023-02-01T07:10:15;2.80;99.90
40077;DHT22;25777;47.824;18.982;2023-02-01T07:12:41;2.90;99.90
40077;DHT22;25777;47.824;18.982;2023-02-01T07:15:07;3.00;99.90
40077;DHT22;25777;47.824;18.982;2023-02-01T07:17:36;2.90;99.90
40077;DHT22;25777;47.824;18.982;2023-02-01T07:20:03;3.00;99.90
40077;DHT22;25777;47.824;18.982;2023-02-01T07:22:29;3.00;99.90
40077;DHT22;25777;47.824;18.982;2023-02-01T07:24:56;3.20;99.90
40077;DHT22;25777;47.824;18.982;2023-02-01T07:27:22;3.30;99.90
40077;DHT22;25777;47.824;18.982;2023-02-01T07:29:51;3.40;99.90
40077;DHT22;25777;47.824;18.982;2023-02-01T07:32:17;3.40;99.90
40077;DHT22;25777;47.824;18.982;2023-02-01T07:34:44;3.50;99.90
40077;DHT22;25777;47.824;18.982;2023-02-01T07:37:10;3.60;99.90
40077;DHT22;25777;47.824;18.982;2023-02-01T07:39:37;3.60;99.90
40077;DHT22;25777;47.824;18.982;2023-02-01T07:42:03;3.50;99.90
40077;DHT22;25777;47.824;18.982;2023-02-01T07:44:29;3.40;99.90
40077;DHT22;25777;47.824;18.982;2023-02-01T07:46:56;3.50;99.90
40077;DHT22;25777;47.824;18.982;2023-02-01T07:49:25;3.40;99.90
40077;DHT22;25777;47.824;18.982;2023-02-01T07:51:52;3.40;99.90
40077;DHT22;25777;47.824;18.982;2023-02-01T07:54:20;3.60;99.90
40077;DHT22;25777;47.824;18.982;2023-02-01T07:56:46;3.80;99.90
40077;DHT22;25777;47.824;18.982;2023-02-01T07:59:13;3.80;99.90
40077;DHT22;25777;47.824;18.982;2023-02-01T08:01:41;4.00;99.90
40077;DHT22;25777;47.824;18.982;2023-02-01T08:04:11;4.10;99.90
40077;DHT22;25777;47.824;18.982;2023-02-01T08:06:39;4.30;99.90
40077;DHT22;25777;47.824;18.982;2023-02-01T08:09:06;4.30;99.90
40077;DHT22;25777;47.824;18.982;2023-02-01T08:11:38;4.40;99.90
40077;DHT22;25777;47.824;18.982;2023-02-01T08:14:05;4.50;99.90
40077;DHT22;25777;47.824;18.982;2023-02-01T08:16:32;4.60;99.90
40077;DHT22;25777;47.824;18.982;2023-02-01T08:19:00;4.80;99.90
40077;DHT22;25777;47.824;18.982;2023-02-01T08:21:28;4.90;99.90
40077;DHT22;25777;47.824;18.982;2023-02-01T08:24:08;5.00;99.90
40077;DHT22;25777;47.824;18.982;2023-02-01T08:26:35;5.10;99.90
40077;DHT22;25777;47.824;18.982;2023-02-01T08:29:03;5.20;99.90
40077;DHT22;25777;47.824;18.982;2023-02-01T08:31:33;5.30;99.90
40077;DHT22;25777;47.824;18.982;2023-02-01T08:34:01;5.40;99.90
40077;DHT22;25777;47.824;18.982;2023-02-01T08:36:32;5.50;99.90
40077;DHT22;25777;47.824;18.982;2023-02-01T08:38:59;5.70;99.90
40077;DHT22;25777;47.824;18.982;2023-02-01T08:41:27;5.70;99.90
40077;DHT22;25777;47.824;18.982;2023-02-01T08:43:55;5.70;99.90
40077;DHT22;25777;47.824;18.982;2023-02-01T08:46:22;5.80;99.90
40077;DHT22;25777;47.824;18.982;2023-02-01T08:48:48;6.00;99.90
40077;DHT22;25777;47.824;18.982;2023-02-01T08:51:17;6.20;99.90
40077;DHT22;25777;47.824;18.982;2023-02-01T08:53:44;6.30;99.90
40077;DHT22;25777;47.824;18.982;2023-02-01T08:56:12;6.50;99.90
40077;DHT22;25777;47.824;18.982;2023-02-01T08:58:39;6.40;99.90
40077;DHT22;25777;47.824;18.982;2023-02-01T09:01:08;6.30;99.90
40077;DHT22;25777;47.824;18.982;2023-02-01T09:03:35;6.10;99.90
40077;DHT22;25777;47.824;18.982;2023-02-01T09:06:09;6.00;99.90
40077;DHT22;25777;47.824;18.982;2023-02-01T09:08:37;5.80;99.90
40077;DHT22;25777;47.824;18.982;2023-02-01T09:11:05;5.70;99.90
40077;DHT22;25777;47.824;18.982;2023-02-01T09:13:32;5.60;99.90
40077;DHT22;25777;47.824;18.982;2023-02-01T09:15:59;5.50;99.90
40077;DHT22;25777;47.824;18.982;2023-02-01T09:18:26;5.40;99.90
40077;DHT22;25777;47.824;18.982;2023-02-01T09:20:53;5.40;99.90
40077;DHT22;25777;47.824;18.982;2023-02-01T09:23:20;5.30;99.90
40077;DHT22;25777;47.824;18.982;2023-02-01T09:25:47;5.20;99.90
40077;DHT22;25777;47.824;18.982;2023-02-01T09:28:16;5.10;99.90
40077;DHT22;25777;47.824;18.982;2023-02-01T09:30:42;5.00;99.90
40077;DHT22;25777;47.824;18.982;2023-02-01T09:33:09;5.10;99.90
40077;DHT22;25777;47.824;18.982;2023-02-01T09:35:35;5.20;99.90
40077;DHT22;25777;47.824;18.982;2023-02-01T09:38:01;5.50;99.90
40077;DHT22;25777;47.824;18.982;2023-02-01T09:40:28;5.60;99.90
40077;DHT22;25777;47.824;18.982;2023-02-01T09:43:09;5.50;99.90
40077;DHT22;25777;47.824;18.982;2023-02-01T09:48:42;5.50;99.90
40077;DHT22;25777;47.824;18.982;2023-02-01T09:51:37;5.80;99.90
40077;DHT22;25777;47.824;18.982;2023-02-01T09:54:26;6.10;99.90
40077;DHT22;25777;47.824;18.982;2023-02-01T09:56:59;6.00;99.90
40077;DHT22;25777;47.824;18.982;2023-02-01T09:59:41;5.90;99.90
40077;DHT22;25777;47.824;18.982;2023-02-01T10:02:23;5.70;99.90
40077;DHT22;25777;47.824;18.982;2023-02-01T10:04:52;5.60;99.90
40077;DHT22;25777;47.824;18.982;2023-02-01T10:07:33;5.60;99.90
40077;DHT22;25777;47.824;18.982;2023-02-01T10:18:57;5.40;99.90
40077;DHT22;25777;47.824;18.982;2023-02-01T10:21:34;5.50;99.90
40077;DHT22;25777;47.824;18.982;2023-02-01T10:24:53;5.60;99.90
40077;DHT22;25777;47.824;18.982;2023-02-01T10:27:07;5.60;99.90
40077;DHT22;25777;47.824;18.982;2023-02-01T10:29:41;5.60;99.90
40077;DHT22;25777;47.824;18.982;2023-02-01T10:32:29;5.60;99.90
40077;DHT22;25777;47.824;18.982;2023-02-01T10:34:59;5.60;99.90
40077;DHT22;25777;47.824;18.982;2023-02-01T10:37:33;5.60;99.90
40077;DHT22;25777;47.824;18.982;2023-02-01T10:40:15;5.60;99.90
40077;DHT22;25777;47.824;18.982;2023-02-01T10:42:43;5.70;99.90
40077;DHT22;25777;47.824;18.982;2023-02-01T10:45:35;5.70;99.90
40077;DHT22;25777;47.824;18.982;2023-02-01T10:48:04;5.80;99.90
40077;DHT22;25777;47.824;18.982;2023-02-01T10:50:41;5.80;99.90
40077;DHT22;25777;47.824;18.982;2023-02-01T10:55:48;5.70;99.90
40077;DHT22;25777;47.824;18.982;2023-02-01T11:00:52;5.80;99.90
40077;DHT22;25777;47.824;18.982;2023-02-01T11:03:21;5.80;99.90
40077;DHT22;25777;47.824;18.982;2023-02-01T11:05:48;5.70;99.90
40077;DHT22;25777;47.824;18.982;2023-02-01T11:08:18;5.70;99.90
40077;DHT22;25777;47.824;18.982;2023-02-01T11:10:45;5.60;99.90
40077;DHT22;25777;47.824;18.982;2023-02-01T11:13:16;5.70;99.90
40077;DHT22;25777;47.824;18.982;2023-02-01T11:15:46;5.70;99.90
40077;DHT22;25777;47.824;18.982;2023-02-01T11:18:19;5.60;99.90
40077;DHT22;25777;47.824;18.982;2023-02-01T11:20:47;5.60;99.90
40077;DHT22;25777;47.824;18.982;2023-02-01T11:23:20;5.50;99.90
40077;DHT22;25777;47.824;18.982;2023-02-01T11:25:54;5.50;99.90
40077;DHT22;25777;47.824;18.982;2023-02-01T11:28:30;5.30;99.90
40077;DHT22;25777;47.824;18.982;2023-02-01T11:31:04;5.20;99.90
40077;DHT22;25777;47.824;18.982;2023-02-01T11:33:34;5.00;99.90
40077;DHT22;25777;47.824;18.982;2023-02-01T11:36:09;4.90;99.90
40077;DHT22;25777;47.824;18.982;2023-02-01T11:38:37;4.70;99.90
40077;DHT22;25777;47.824;18.982;2023-02-01T11:41:44;4.70;99.90
40077;DHT22;25777;47.824;18.982;2023-02-01T11:44:22;4.60;99.90
40077;DHT22;25777;47.824;18.982;2023-02-01T11:46:48;4.50;99.90
40077;DHT22;25777;47.824;18.982;2023-02-01T11:49:21;4.50;99.90
40077;DHT22;25777;47.824;18.982;2023-02-01T11:55:07;4.30;99.90
40077;DHT22;25777;47.824;18.982;2023-02-01T12:08:48;4.20;99.90
40077;DHT22;25777;47.824;18.982;2023-02-01T12:11:33;4.20;99.90
40077;DHT22;25777;47.824;18.982;2023-02-01T12:23:10;4.30;99.90
40077;DHT22;25777;47.824;18.982;2023-02-01T12:28:25;4.30;99.90
40077;DHT22;25777;47.824;18.982;2023-02-01T12:33:50;4.40;99.90
40077;DHT22;25777;47.824;18.982;2023-02-01T12:36:37;4.40;99.90
40077;DHT22;25777;47.824;18.982;2023-02-01T12:39:22;4.40;99.90
40077;DHT22;25777;47.824;18.982;2023-02-01T12:44:43;4.40;99.90
40077;DHT22;25777;47.824;18.982;2023-02-01T12:52:51;4.50;99.90
40077;DHT22;25777;47.824;18.982;2023-02-01T12:55:27;4.60;99.90
40077;DHT22;25777;47.824;18.982;2023-02-01T12:58:22;4.70;99.90
40077;DHT22;25777;47.824;18.982;2023-02-01T13:01:02;4.70;99.90
40077;DHT22;25777;47.824;18.982;2023-02-01T13:03:42;4.70;99.90
40077;DHT22;25777;47.824;18.982;2023-02-01T13:06:17;4.80;99.90
40077;DHT22;25777;47.824;18.982;2023-02-01T13:09:00;4.80;99.90
40077;DHT22;25777;47.824;18.982;2023-02-01T13:11:55;4.70;99.90
40077;DHT22;25777;47.824;18.982;2023-02-01T13:14:42;4.70;99.90
40077;DHT22;25777;47.824;18.982;2023-02-01T13:17:23;4.70;99.90
40077;DHT22;25777;47.824;18.982;2023-02-01T13:22:50;4.50;99.90
40077;DHT22;25777;47.824;18.982;2023-02-01T13:25:40;4.40;99.90
40077;DHT22;25777;47.824;18.982;2023-02-01T13:28:40;4.50;99.90
40077;DHT22;25777;47.824;18.982;2023-02-01T13:41:54;4.70;99.90
40077;DHT22;25777;47.824;18.982;2023-02-01T13:44:47;4.60;99.90
40077;DHT22;25777;47.824;18.982;2023-02-01T13:47:49;4.60;99.90
40077;DHT22;25777;47.824;18.982;2023-02-01T13:50:27;4.60;99.90
40077;DHT22;25777;47.824;18.982;2023-02-01T13:52:58;4.00;99.90
40077;DHT22;25777;47.824;18.982;2023-02-01T13:55:33;3.70;99.90
40077;DHT22;25777;47.824;18.982;2023-02-01T13:58:22;3.50;99.90
40077;DHT22;25777;47.824;18.982;2023-02-01T14:01:31;3.40;99.90
40077;DHT22;25777;47.824;18.982;2023-02-01T14:04:45;3.40;99.90
40077;DHT22;25777;47.824;18.982;2023-02-01T14:07:19;3.40;99.90
40077;DHT22;25777;47.824;18.982;2023-02-01T14:09:45;3.30;99.90
40077;DHT22;25777;47.824;18.982;2023-02-01T14:12:44;3.30;99.90
40077;DHT22;25777;47.824;18.982;2023-02-01T14:15:23;3.40;99.90
40077;DHT22;25777;47.824;18.982;2023-02-01T14:17:50;3.40;99.90
40077;DHT22;25777;47.824;18.982;2023-02-01T14:21:10;3.40;99.90
40077;DHT22;25777;47.824;18.982;2023-02-01T14:23:46;3.60;99.90
40077;DHT22;25777;47.824;18.982;2023-02-01T14:42:43;3.50;99.90
40077;DHT22;25777;47.824;18.982;2023-02-01T14:47:55;3.50;99.90
40077;DHT22;25777;47.824;18.982;2023-02-01T14:50:46;3.40;99.90
40077;DHT22;25777;47.824;18.982;2023-02-01T14:53:15;3.40;99.90
40077;DHT22;25777;47.824;18.982;2023-02-01T14:55:50;3.40;99.90
40077;DHT22;25777;47.824;18.982;2023-02-01T14:59:00;3.50;99.90
40077;DHT22;25777;47.824;18.982;2023-02-01T15:01:35;3.50;99.90
40077;DHT22;25777;47.824;18.982;2023-02-01T15:06:49;3.50;99.90
40077;DHT22;25777;47.824;18.982;2023-02-01T15:09:29;3.60;99.90
40077;DHT22;25777;47.824;18.982;2023-02-01T15:14:35;3.60;99.90
40077;DHT22;25777;47.824;18.982;2023-02-01T15:17:02;3.60;99.90
40077;DHT22;25777;47.824;18.982;2023-02-01T15:19:29;3.50;99.90
40077;DHT22;25777;47.824;18.982;2023-02-01T15:21:57;3.50;99.90
40077;DHT22;25777;47.824;18.982;2023-02-01T15:24:29;3.50;99.90
40077;DHT22;25777;47.824;18.982;2023-02-01T15:27:04;3.50;99.90
40077;DHT22;25777;47.824;18.982;2023-02-01T15:29:30;3.50;99.90
40077;DHT22;25777;47.824;18.982;2023-02-01T15:31:59;3.60;99.90
40077;DHT22;25777;47.824;18.982;2023-02-01T15:34:48;3.60;99.90
40077;DHT22;25777;47.824;18.982;2023-02-01T15:37:15;3.50;99.90
40077;DHT22;25777;47.824;18.982;2023-02-01T15:42:52;3.50;99.90
40077;DHT22;25777;47.824;18.982;2023-02-01T15:45:19;3.50;99.90
40077;DHT22;25777;47.824;18.982;2023-02-01T15:47:50;3.40;99.90
40077;DHT22;25777;47.824;18.982;2023-02-01T15:50:18;3.40;99.90
40077;DHT22;25777;47.824;18.982;2023-02-01T15:52:47;3.40;99.90
40077;DHT22;25777;47.824;18.982;2023-02-01T15:55:30;3.40;99.90
40077;DHT22;25777;47.824;18.982;2023-02-01T15:57:59;3.30;99.90
40077;DHT22;25777;47.824;18.982;2023-02-01T16:00:30;3.30;99.90
40077;DHT22;25777;47.824;18.982;2023-02-01T16:03:05;3.30;99.90
40077;DHT22;25777;47.824;18.982;2023-02-01T16:05:58;3.30;99.90
40077;DHT22;25777;47.824;18.982;2023-02-01T16:08:27;3.40;99.90
40077;DHT22;25777;47.824;18.982;2023-02-01T16:11:22;3.50;99.90
40077;DHT22;25777;47.824;18.982;2023-02-01T16:13:46;3.60;99.90
40077;DHT22;25777;47.824;18.982;2023-02-01T16:16:13;3.90;99.90
40077;DHT22;25777;47.824;18.982;2023-02-01T16:18:40;3.90;99.90
40077;DHT22;25777;47.824;18.982;2023-02-01T16:21:08;4.00;99.90
40077;DHT22;25777;47.824;18.982;2023-02-01T16:23:35;4.00;99.90
40077;DHT22;25777;47.824;18.982;2023-02-01T16:26:02;4.00;99.90
40077;DHT22;25777;47.824;18.982;2023-02-01T16:28:29;3.90;99.90
40077;DHT22;25777;47.824;18.982;2023-02-01T16:30:55;3.90;99.90
40077;DHT22;25777;47.824;18.982;2023-02-01T16:33:22;3.90;99.90
40077;DHT22;25777;47.824;18.982;2023-02-01T16:35:51;3.90;99.90
40077;DHT22;25777;47.824;18.982;2023-02-01T16:38:18;3.80;99.90
40077;DHT22;25777;47.824;18.982;2023-02-01T16:40:47;3.90;99.90
40077;DHT22;25777;47.824;18.982;2023-02-01T16:43:20;3.80;99.90
40077;DHT22;25777;47.824;18.982;2023-02-01T16:45:47;3.80;99.90
40077;DHT22;25777;47.824;18.982;2023-02-01T16:48:31;3.80;99.90
40077;DHT22;25777;47.824;18.982;2023-02-01T16:51:01;3.70;99.90
40077;DHT22;25777;47.824;18.982;2023-02-01T16:53:29;3.70;99.90
40077;DHT22;25777;47.824;18.982;2023-02-01T16:55:56;3.70;99.90
40077;DHT22;25777;47.824;18.982;2023-02-01T16:58:26;3.60;99.90
40077;DHT22;25777;47.824;18.982;2023-02-01T17:00:53;3.60;99.90
40077;DHT22;25777;47.824;18.982;2023-02-01T17:03:20;3.70;99.90
40077;DHT22;25777;47.824;18.982;2023-02-01T17:05:55;3.70;99.90
40077;DHT22;25777;47.824;18.982;2023-02-01T17:08:31;3.70;99.90
40077;DHT22;25777;47.824;18.982;2023-02-01T17:10:58;3.60;99.90
40077;DHT22;25777;47.824;18.982;2023-02-01T17:13:24;3.60;99.90
40077;DHT22;25777;47.824;18.982;2023-02-01T17:15:53;3.60;99.90
40077;DHT22;25777;47.824;18.982;2023-02-01T17:18:20;3.60;99.90
40077;DHT22;25777;47.824;18.982;2023-02-01T17:20:46;3.60;99.90
40077;DHT22;25777;47.824;18.982;2023-02-01T17:23:14;3.60;99.90
40077;DHT22;25777;47.824;18.982;2023-02-01T17:25:41;3.60;99.90
40077;DHT22;25777;47.824;18.982;2023-02-01T17:28:07;3.60;99.90
40077;DHT22;25777;47.824;18.982;2023-02-01T17:30:33;3.70;99.90
40077;DHT22;25777;47.824;18.982;2023-02-01T17:33:00;3.70;99.90
40077;DHT22;25777;47.824;18.982;2023-02-01T17:35:27;3.70;99.90
40077;DHT22;25777;47.824;18.982;2023-02-01T17:37:54;3.80;99.90
40077;DHT22;25777;47.824;18.982;2023-02-01T17:40:20;3.80;99.90
40077;DHT22;25777;47.824;18.982;2023-02-01T17:42:46;3.90;99.90
40077;DHT22;25777;47.824;18.982;2023-02-01T17:45:35;3.90;99.90
40077;DHT22;25777;47.824;18.982;2023-02-01T17:48:06;3.90;99.90
40077;DHT22;25777;47.824;18.982;2023-02-01T17:50:35;3.90;99.90
40077;DHT22;25777;47.824;18.982;2023-02-01T17:53:03;3.70;99.90
40077;DHT22;25777;47.824;18.982;2023-02-01T17:55:34;3.70;99.90